Aviation Digital Data Service (ADDS)

Output produced by METARs form (0044 UTC 19 August 2019)
found at http://www.aviationweather.gov/metar/data/
 
METAR text: LFSI 190030Z AUTO 22004KT 9999 BKN008 BKN012 BKN060 17/16 Q1015
Conditions at: LFSI (ST. DIZIER/ROBIN, FR) observed 0030 UTC 19 August 2019
Temperature: 17.0°C (63°F)
Dewpoint: 16.0°C (61°F) [RH = 94%]
Pressure (altimeter): 29.97 inches Hg (1015.0 mb)
Winds: from the SW (220 degrees) at 5 MPH (4 knots; 2.1 m/s)
Visibility: 6 or more miles (10+ km)
Ceiling: 800 feet AGL
Clouds: broken clouds at 800 feet AGL
broken clouds at 1200 feet AGL
broken clouds at 6000 feet AGL
Weather: no significant weather observed at this time

METAR text: LFSI 190000Z AUTO 21004KT 9999 SCT041 SCT064 17/16 Q1015
Conditions at: LFSI (ST. DIZIER/ROBIN, FR) observed 0000 UTC 19 August 2019
Temperature: 17.0°C (63°F)
Dewpoint: 16.0°C (61°F) [RH = 94%]
Pressure (altimeter): 29.97 inches Hg (1015.0 mb)
Winds: from the SSW (210 degrees) at 5 MPH (4 knots; 2.1 m/s)
Visibility: 6 or more miles (10+ km)
Ceiling: at least 12,000 feet AGL
Clouds: scattered clouds at 4100 feet AGL
scattered clouds at 6400 feet AGL
Weather: no significant weather observed at this time

METAR text: LFSI 182330Z AUTO 20004KT CAVOK 17/16 Q1014
Conditions at: LFSI (ST. DIZIER/ROBIN, FR) observed 2330 UTC 18 August 2019
Temperature: 17.0°C (63°F)
Dewpoint: 16.0°C (61°F) [RH = 94%]
Pressure (altimeter): 29.94 inches Hg (1014.0 mb)
Winds: from the SSW (200 degrees) at 5 MPH (4 knots; 2.1 m/s)
Visibility: 6 or more miles (10+ km)
Ceiling: ceiling and visibility are OK
Clouds: unknown
Weather: no significant weather observed at this time

METAR text: LFSI 182300Z AUTO 18005KT CAVOK 18/17 Q1014
Conditions at: LFSI (ST. DIZIER/ROBIN, FR) observed 2300 UTC 18 August 2019
Temperature: 18.0°C (64°F)
Dewpoint: 17.0°C (63°F) [RH = 94%]
Pressure (altimeter): 29.94 inches Hg (1014.0 mb)
Winds: from the S (180 degrees) at 6 MPH (5 knots; 2.6 m/s)
Visibility: 6 or more miles (10+ km)
Ceiling: ceiling and visibility are OK
Clouds: unknown
Weather: no significant weather observed at this time

METAR text: LFSI 182230Z AUTO 18004KT CAVOK 17/16 Q1014
Conditions at: LFSI (ST. DIZIER/ROBIN, FR) observed 2230 UTC 18 August 2019
Temperature: 17.0°C (63°F)
Dewpoint: 16.0°C (61°F) [RH = 94%]
Pressure (altimeter): 29.94 inches Hg (1014.0 mb)
Winds: from the S (180 degrees) at 5 MPH (4 knots; 2.1 m/s)
Visibility: 6 or more miles (10+ km)
Ceiling: ceiling and visibility are OK
Clouds: unknown
Weather: no significant weather observed at this time

METAR text: LFSI 182200Z AUTO 18003KT CAVOK 17/16 Q1014
Conditions at: LFSI (ST. DIZIER/ROBIN, FR) observed 2200 UTC 18 August 2019
Temperature: 17.0°C (63°F)
Dewpoint: 16.0°C (61°F) [RH = 94%]
Pressure (altimeter): 29.94 inches Hg (1014.0 mb)
Winds: from the S (180 degrees) at 3 MPH (3 knots; 1.5 m/s)
Visibility: 6 or more miles (10+ km)
Ceiling: ceiling and visibility are OK
Clouds: unknown
Weather: no significant weather observed at this time

METAR text: LFSI 182130Z AUTO 22002KT CAVOK 18/17 Q1013
Conditions at: LFSI (ST. DIZIER/ROBIN, FR) observed 2130 UTC 18 August 2019
Temperature: 18.0°C (64°F)
Dewpoint: 17.0°C (63°F) [RH = 94%]
Pressure (altimeter): 29.91 inches Hg (1013.0 mb)
Winds: from the SW (220 degrees) at 2 MPH (2 knots; 1.0 m/s)
Visibility: 6 or more miles (10+ km)
Ceiling: ceiling and visibility are OK
Clouds: unknown
Weather: no significant weather observed at this time

METAR text: LFSI 182100Z AUTO 22003KT CAVOK 18/17 Q1013
Conditions at: LFSI (ST. DIZIER/ROBIN, FR) observed 2100 UTC 18 August 2019
Temperature: 18.0°C (64°F)
Dewpoint: 17.0°C (63°F) [RH = 94%]
Pressure (altimeter): 29.91 inches Hg (1013.0 mb)
Winds: from the SW (220 degrees) at 3 MPH (3 knots; 1.5 m/s)
Visibility: 6 or more miles (10+ km)
Ceiling: ceiling and visibility are OK
Clouds: unknown
Weather: no significant weather observed at this time

METAR text: LFSI 182030Z AUTO 21002KT CAVOK 18/17 Q1013
Conditions at: LFSI (ST. DIZIER/ROBIN, FR) observed 2030 UTC 18 August 2019
Temperature: 18.0°C (64°F)
Dewpoint: 17.0°C (63°F) [RH = 94%]
Pressure (altimeter): 29.91 inches Hg (1013.0 mb)
Winds: from the SSW (210 degrees) at 2 MPH (2 knots; 1.0 m/s)
Visibility: 6 or more miles (10+ km)
Ceiling: ceiling and visibility are OK
Clouds: unknown
Weather: no significant weather observed at this time

METAR text: LFSI 182000Z AUTO 20003KT CAVOK 18/17 Q1013
Conditions at: LFSI (ST. DIZIER/ROBIN, FR) observed 2000 UTC 18 August 2019
Temperature: 18.0°C (64°F)
Dewpoint: 17.0°C (63°F) [RH = 94%]
Pressure (altimeter): 29.91 inches Hg (1013.0 mb)
Winds: from the SSW (200 degrees) at 3 MPH (3 knots; 1.5 m/s)
Visibility: 6 or more miles (10+ km)
Ceiling: ceiling and visibility are OK
Clouds: unknown
Weather: no significant weather observed at this time

METAR text: LFSI 181930Z AUTO 20004KT CAVOK 18/17 Q1012
Conditions at: LFSI (ST. DIZIER/ROBIN, FR) observed 1930 UTC 18 August 2019
Temperature: 18.0°C (64°F)
Dewpoint: 17.0°C (63°F) [RH = 94%]
Pressure (altimeter): 29.88 inches Hg (1012.0 mb)
Winds: from the SSW (200 degrees) at 5 MPH (4 knots; 2.1 m/s)
Visibility: 6 or more miles (10+ km)
Ceiling: ceiling and visibility are OK
Clouds: unknown
Weather: no significant weather observed at this time

METAR text: LFSI 181900Z AUTO 20003KT CAVOK 19/17 Q1011
Conditions at: LFSI (ST. DIZIER/ROBIN, FR) observed 1900 UTC 18 August 2019
Temperature: 19.0°C (66°F)
Dewpoint: 17.0°C (63°F) [RH = 88%]
Pressure (altimeter): 29.85 inches Hg (1011.0 mb)
Winds: from the SSW (200 degrees) at 3 MPH (3 knots; 1.5 m/s)
Visibility: 6 or more miles (10+ km)
Ceiling: ceiling and visibility are OK
Clouds: unknown
Weather: no significant weather observed at this time

METAR text: LFSI 181830Z AUTO VRB02KT 9999 FEW020 SCT025 BKN092 19/16 Q1011
Conditions at: LFSI (ST. DIZIER/ROBIN, FR) observed 1830 UTC 18 August 2019
Temperature: 19.0°C (66°F)
Dewpoint: 16.0°C (61°F) [RH = 83%]
Pressure (altimeter): 29.85 inches Hg (1011.0 mb)
Winds: variable direction winds at 2 MPH (2 knots; 1.0 m/s)
Visibility: 6 or more miles (10+ km)
Ceiling: 9200 feet AGL
Clouds: few clouds at 2000 feet AGL
scattered clouds at 2500 feet AGL
broken clouds at 9200 feet AGL
Weather: no significant weather observed at this time

METAR text: LFSI 181800Z AUTO 25003KT 9999 ///TCU 19/16 Q1011
Conditions at: LFSI (ST. DIZIER/ROBIN, FR) observed 1800 UTC 18 August 2019
Temperature: 19.0°C (66°F)
Dewpoint: 16.0°C (61°F) [RH = 83%]
Pressure (altimeter): 29.85 inches Hg (1011.0 mb)
Winds: from the WSW (250 degrees) at 3 MPH (3 knots; 1.5 m/s)
Visibility: 6 or more miles (10+ km)
Ceiling: unknown
Clouds: missing
Weather: no significant weather observed at this time

METAR text: LFSI 181730Z AUTO 24005KT 9999 FEW025 BKN110 BKN140 19/16 Q1012
Conditions at: LFSI (ST. DIZIER/ROBIN, FR) observed 1730 UTC 18 August 2019
Temperature: 19.0°C (66°F)
Dewpoint: 16.0°C (61°F) [RH = 83%]
Pressure (altimeter): 29.88 inches Hg (1012.0 mb)
Winds: from the WSW (240 degrees) at 6 MPH (5 knots; 2.6 m/s)
Visibility: 6 or more miles (10+ km)
Ceiling: 11000 feet AGL
Clouds: few clouds at 2500 feet AGL
broken clouds at 11000 feet AGL
broken clouds at 14000 feet AGL
Weather: no significant weather observed at this time

METAR text: LFSI 181700Z AUTO 24005KT 210V280 9999 FEW027/// SCT068/// OVC110/// ///TCU 19/16 Q1012
Conditions at: LFSI (ST. DIZIER/ROBIN, FR) observed 1700 UTC 18 August 2019
Temperature: 19.0°C (66°F)
Dewpoint: 16.0°C (61°F) [RH = 83%]
Pressure (altimeter): 29.88 inches Hg (1012.0 mb)
Winds: from the WSW (240 degrees) at 6 MPH (5 knots; 2.6 m/s)
Visibility: 6 or more miles (10+ km)
Ceiling: 11000 feet AGL
Clouds: few clouds at 2700 feet AGL
scattered clouds at 6800 feet AGL
overcast cloud deck at 11000 feet AGL
Weather: no significant weather observed at this time

METAR text: LFSI 181630Z AUTO 25010KT 9999 -RA FEW046/// SCT088/// OVC100/// ///TCU 20/16 Q1012
Conditions at: LFSI (ST. DIZIER/ROBIN, FR) observed 1630 UTC 18 August 2019
Temperature: 20.0°C (68°F)
Dewpoint: 16.0°C (61°F) [RH = 78%]
Pressure (altimeter): 29.88 inches Hg (1012.0 mb)
Winds: from the WSW (250 degrees) at 12 MPH (10 knots; 5.1 m/s)
Visibility: 6 or more miles (10+ km)
Ceiling: 10000 feet AGL
Clouds: few clouds at 4600 feet AGL
scattered clouds at 8800 feet AGL
overcast cloud deck at 10000 feet AGL
Weather: -RA  (light rain)

METAR text: LFSI 181600Z AUTO 27011KT 9999 SCT021 BKN046 BKN070 20/16 Q1012
Conditions at: LFSI (ST. DIZIER/ROBIN, FR) observed 1600 UTC 18 August 2019
Temperature: 20.0°C (68°F)
Dewpoint: 16.0°C (61°F) [RH = 78%]
Pressure (altimeter): 29.88 inches Hg (1012.0 mb)
Winds: from the W (270 degrees) at 13 MPH (11 knots; 5.7 m/s)
Visibility: 6 or more miles (10+ km)
Ceiling: 4600 feet AGL
Clouds: scattered clouds at 2100 feet AGL
broken clouds at 4600 feet AGL
broken clouds at 7000 feet AGL
Weather: no significant weather observed at this time

METAR text: LFSI 181530Z AUTO 29011KT 9999 FEW018/// SCT044/// BKN086/// ///TCU 21/17 Q1011
Conditions at: LFSI (ST. DIZIER/ROBIN, FR) observed 1530 UTC 18 August 2019
Temperature: 21.0°C (70°F)
Dewpoint: 17.0°C (63°F) [RH = 78%]
Pressure (altimeter): 29.85 inches Hg (1011.0 mb)
Winds: from the WNW (290 degrees) at 13 MPH (11 knots; 5.7 m/s)
Visibility: 6 or more miles (10+ km)
Ceiling: 8600 feet AGL
Clouds: few clouds at 1800 feet AGL
scattered clouds at 4400 feet AGL
broken clouds at 8600 feet AGL
Weather: no significant weather observed at this time

METAR text: LFSI 181500Z AUTO 23007KT 9999 ///CB 21/18 Q1011
Conditions at: LFSI (ST. DIZIER/ROBIN, FR) observed 1500 UTC 18 August 2019
Temperature: 21.0°C (70°F)
Dewpoint: 18.0°C (64°F) [RH = 83%]
Pressure (altimeter): 29.85 inches Hg (1011.0 mb)
Winds: from the SW (230 degrees) at 8 MPH (7 knots; 3.6 m/s)
Visibility: 6 or more miles (10+ km)
Ceiling: unknown
Clouds: missing
Weather: no significant weather observed at this time

METAR text: LFSI 181430Z AUTO 25009KT 9999 -RA VCTS FEW020/// SCT052/// BKN092/// ///CB 20/17 Q1010
Conditions at: LFSI (ST. DIZIER/ROBIN, FR) observed 1430 UTC 18 August 2019
Temperature: 20.0°C (68°F)
Dewpoint: 17.0°C (63°F) [RH = 83%]
Pressure (altimeter): 29.82 inches Hg (1010.0 mb)
Winds: from the WSW (250 degrees) at 10 MPH (9 knots; 4.6 m/s)
Visibility: 6 or more miles (10+ km)
Ceiling: 9200 feet AGL
Clouds: few clouds at 2000 feet AGL
scattered clouds at 5200 feet AGL
broken clouds at 9200 feet AGL
Weather: -RA VCTS  (light rain, thunderstorm in vicinity)

METAR text: LFSI 181400Z AUTO 28019KT 9999 VCTS FEW032/// BKN041/// BKN054/// ///CB 23/16 Q1010
Conditions at: LFSI (ST. DIZIER/ROBIN, FR) observed 1400 UTC 18 August 2019
Temperature: 23.0°C (73°F)
Dewpoint: 16.0°C (61°F) [RH = 65%]
Pressure (altimeter): 29.82 inches Hg (1010.0 mb)
Winds: from the W (280 degrees) at 22 MPH (19 knots; 9.8 m/s)
Visibility: 6 or more miles (10+ km)
Ceiling: 4100 feet AGL
Clouds: few clouds at 3200 feet AGL
broken clouds at 4100 feet AGL
broken clouds at 5400 feet AGL
Weather: VCTS  (thunderstorm in vicinity)

METAR text: LFSI 181330Z AUTO 22013KT 190V260 9999 BKN039/// BKN047/// BKN054/// ///CB 27/16 Q1009
Conditions at: LFSI (ST. DIZIER/ROBIN, FR) observed 1330 UTC 18 August 2019
Temperature: 27.0°C (81°F)
Dewpoint: 16.0°C (61°F) [RH = 51%]
Pressure (altimeter): 29.79 inches Hg (1009.0 mb)
Winds: from the SW (220 degrees) at 15 MPH (13 knots; 6.7 m/s)
Visibility: 6 or more miles (10+ km)
Ceiling: 3900 feet AGL
Clouds: broken clouds at 3900 feet AGL
broken clouds at 4700 feet AGL
broken clouds at 5400 feet AGL
Weather: no significant weather observed at this time

METAR text: LFSI 181300Z AUTO 25013KT 9999 SCT036/// BKN043/// BKN049/// ///TCU 26/16 Q1009
Conditions at: LFSI (ST. DIZIER/ROBIN, FR) observed 1300 UTC 18 August 2019
Temperature: 26.0°C (79°F)
Dewpoint: 16.0°C (61°F) [RH = 54%]
Pressure (altimeter): 29.79 inches Hg (1009.0 mb)
Winds: from the WSW (250 degrees) at 15 MPH (13 knots; 6.7 m/s)
Visibility: 6 or more miles (10+ km)
Ceiling: 4300 feet AGL
Clouds: scattered clouds at 3600 feet AGL
broken clouds at 4300 feet AGL
broken clouds at 4900 feet AGL
Weather: no significant weather observed at this time

METAR text: LFSI 181230Z AUTO 22013KT 190V250 9999 SCT038 BKN047 BKN056 26/17 Q1009
Conditions at: LFSI (ST. DIZIER/ROBIN, FR) observed 1230 UTC 18 August 2019
Temperature: 26.0°C (79°F)
Dewpoint: 17.0°C (63°F) [RH = 58%]
Pressure (altimeter): 29.79 inches Hg (1009.0 mb)
Winds: from the SW (220 degrees) at 15 MPH (13 knots; 6.7 m/s)
Visibility: 6 or more miles (10+ km)
Ceiling: 4700 feet AGL
Clouds: scattered clouds at 3800 feet AGL
broken clouds at 4700 feet AGL
broken clouds at 5600 feet AGL
Weather: no significant weather observed at this time

METAR text: LFSI 181200Z AUTO 22013KT 9999 BKN035 BKN044 BKN080 26/17 Q1009
Conditions at: LFSI (ST. DIZIER/ROBIN, FR) observed 1200 UTC 18 August 2019
Temperature: 26.0°C (79°F)
Dewpoint: 17.0°C (63°F) [RH = 58%]
Pressure (altimeter): 29.79 inches Hg (1009.0 mb)
Winds: from the SW (220 degrees) at 15 MPH (13 knots; 6.7 m/s)
Visibility: 6 or more miles (10+ km)
Ceiling: 3500 feet AGL
Clouds: broken clouds at 3500 feet AGL
broken clouds at 4400 feet AGL
broken clouds at 8000 feet AGL
Weather: no significant weather observed at this time

METAR text: LFSI 181130Z AUTO 22015KT 190V260 9999 BKN036 BKN042 OVC092 25/16 Q1009
Conditions at: LFSI (ST. DIZIER/ROBIN, FR) observed 1130 UTC 18 August 2019
Temperature: 25.0°C (77°F)
Dewpoint: 16.0°C (61°F) [RH = 57%]
Pressure (altimeter): 29.79 inches Hg (1009.0 mb)
Winds: from the SW (220 degrees) at 17 MPH (15 knots; 7.7 m/s)
Visibility: 6 or more miles (10+ km)
Ceiling: 3600 feet AGL
Clouds: broken clouds at 3600 feet AGL
broken clouds at 4200 feet AGL
overcast cloud deck at 9200 feet AGL
Weather: no significant weather observed at this time

METAR text: LFSI 181100Z AUTO 21016KT 190V250 9999 BKN038 OVC120 26/16 Q1009
Conditions at: LFSI (ST. DIZIER/ROBIN, FR) observed 1100 UTC 18 August 2019
Temperature: 26.0°C (79°F)
Dewpoint: 16.0°C (61°F) [RH = 54%]
Pressure (altimeter): 29.79 inches Hg (1009.0 mb)
Winds: from the SSW (210 degrees) at 18 MPH (16 knots; 8.2 m/s)
Visibility: 6 or more miles (10+ km)
Ceiling: 3800 feet AGL
Clouds: broken clouds at 3800 feet AGL
overcast cloud deck at 12000 feet AGL
Weather: no significant weather observed at this time

METAR text: LFSI 181030Z AUTO 23014KT 9999 SCT038 SCT044 BKN090 25/16 Q1008
Conditions at: LFSI (ST. DIZIER/ROBIN, FR) observed 1030 UTC 18 August 2019
Temperature: 25.0°C (77°F)
Dewpoint: 16.0°C (61°F) [RH = 57%]
Pressure (altimeter): 29.76 inches Hg (1008.0 mb)
Winds: from the SW (230 degrees) at 16 MPH (14 knots; 7.2 m/s)
Visibility: 6 or more miles (10+ km)
Ceiling: 9000 feet AGL
Clouds: scattered clouds at 3800 feet AGL
scattered clouds at 4400 feet AGL
broken clouds at 9000 feet AGL
Weather: no significant weather observed at this time

METAR text: LFSI 181000Z AUTO 22013KT 9999 FEW037/// SCT094/// BKN110/// ///TCU 26/16 Q1008
Conditions at: LFSI (ST. DIZIER/ROBIN, FR) observed 1000 UTC 18 August 2019
Temperature: 26.0°C (79°F)
Dewpoint: 16.0°C (61°F) [RH = 54%]
Pressure (altimeter): 29.76 inches Hg (1008.0 mb)
Winds: from the SW (220 degrees) at 15 MPH (13 knots; 6.7 m/s)
Visibility: 6 or more miles (10+ km)
Ceiling: 11000 feet AGL
Clouds: few clouds at 3700 feet AGL
scattered clouds at 9400 feet AGL
broken clouds at 11000 feet AGL
Weather: no significant weather observed at this time

METAR text: LFSI 180930Z AUTO 22012KT 190V250 CAVOK 25/17 Q1008
Conditions at: LFSI (ST. DIZIER/ROBIN, FR) observed 0930 UTC 18 August 2019
Temperature: 25.0°C (77°F)
Dewpoint: 17.0°C (63°F) [RH = 61%]
Pressure (altimeter): 29.76 inches Hg (1008.0 mb)
Winds: from the SW (220 degrees) at 14 MPH (12 knots; 6.2 m/s)
Visibility: 6 or more miles (10+ km)
Ceiling: ceiling and visibility are OK
Clouds: unknown
Weather: no significant weather observed at this time

METAR text: LFSI 180900Z AUTO 21010KT CAVOK 24/18 Q1008
Conditions at: LFSI (ST. DIZIER/ROBIN, FR) observed 0900 UTC 18 August 2019
Temperature: 24.0°C (75°F)
Dewpoint: 18.0°C (64°F) [RH = 69%]
Pressure (altimeter): 29.76 inches Hg (1008.0 mb)
Winds: from the SSW (210 degrees) at 12 MPH (10 knots; 5.1 m/s)
Visibility: 6 or more miles (10+ km)
Ceiling: ceiling and visibility are OK
Clouds: unknown
Weather: no significant weather observed at this time

METAR text: LFSI 180830Z AUTO 20009KT 160V230 CAVOK 23/17 Q1007
Conditions at: LFSI (ST. DIZIER/ROBIN, FR) observed 0830 UTC 18 August 2019
Temperature: 23.0°C (73°F)
Dewpoint: 17.0°C (63°F) [RH = 69%]
Pressure (altimeter): 29.73 inches Hg (1007.0 mb)
Winds: from the SSW (200 degrees) at 10 MPH (9 knots; 4.6 m/s)
Visibility: 6 or more miles (10+ km)
Ceiling: ceiling and visibility are OK
Clouds: unknown
Weather: no significant weather observed at this time

METAR text: LFSI 180800Z AUTO 20008KT CAVOK 22/18 Q1007
Conditions at: LFSI (ST. DIZIER/ROBIN, FR) observed 0800 UTC 18 August 2019
Temperature: 22.0°C (72°F)
Dewpoint: 18.0°C (64°F) [RH = 78%]
Pressure (altimeter): 29.73 inches Hg (1007.0 mb)
Winds: from the SSW (200 degrees) at 9 MPH (8 knots; 4.1 m/s)
Visibility: 6 or more miles (10+ km)
Ceiling: ceiling and visibility are OK
Clouds: unknown
Weather: no significant weather observed at this time

METAR text: LFSI 180730Z AUTO 19009KT CAVOK 22/17 Q1007
Conditions at: LFSI (ST. DIZIER/ROBIN, FR) observed 0730 UTC 18 August 2019
Temperature: 22.0°C (72°F)
Dewpoint: 17.0°C (63°F) [RH = 73%]
Pressure (altimeter): 29.73 inches Hg (1007.0 mb)
Winds: from the S (190 degrees) at 10 MPH (9 knots; 4.6 m/s)
Visibility: 6 or more miles (10+ km)
Ceiling: ceiling and visibility are OK
Clouds: unknown
Weather: no significant weather observed at this time

METAR text: LFSI 180700Z AUTO 17010KT 140V210 CAVOK 21/17 Q1007
Conditions at: LFSI (ST. DIZIER/ROBIN, FR) observed 0700 UTC 18 August 2019
Temperature: 21.0°C (70°F)
Dewpoint: 17.0°C (63°F) [RH = 78%]
Pressure (altimeter): 29.73 inches Hg (1007.0 mb)
Winds: from the S (170 degrees) at 12 MPH (10 knots; 5.1 m/s)
Visibility: 6 or more miles (10+ km)
Ceiling: ceiling and visibility are OK
Clouds: unknown
Weather: no significant weather observed at this time

METAR text: LFSI 180630Z AUTO 18009KT CAVOK 20/17 Q1007
Conditions at: LFSI (ST. DIZIER/ROBIN, FR) observed 0630 UTC 18 August 2019
Temperature: 20.0°C (68°F)
Dewpoint: 17.0°C (63°F) [RH = 83%]
Pressure (altimeter): 29.73 inches Hg (1007.0 mb)
Winds: from the S (180 degrees) at 10 MPH (9 knots; 4.6 m/s)
Visibility: 6 or more miles (10+ km)
Ceiling: ceiling and visibility are OK
Clouds: unknown
Weather: no significant weather observed at this time

METAR text: LFSI 180600Z AUTO 18007KT CAVOK 20/17 Q1007
Conditions at: LFSI (ST. DIZIER/ROBIN, FR) observed 0600 UTC 18 August 2019
Temperature: 20.0°C (68°F)
Dewpoint: 17.0°C (63°F) [RH = 83%]
Pressure (altimeter): 29.73 inches Hg (1007.0 mb)
Winds: from the S (180 degrees) at 8 MPH (7 knots; 3.6 m/s)
Visibility: 6 or more miles (10+ km)
Ceiling: ceiling and visibility are OK
Clouds: unknown
Weather: no significant weather observed at this time

METAR text: LFSI 180530Z AUTO 16006KT 9999 BKN022 19/17 Q1008
Conditions at: LFSI (ST. DIZIER/ROBIN, FR) observed 0530 UTC 18 August 2019
Temperature: 19.0°C (66°F)
Dewpoint: 17.0°C (63°F) [RH = 88%]
Pressure (altimeter): 29.76 inches Hg (1008.0 mb)
Winds: from the SSE (160 degrees) at 7 MPH (6 knots; 3.1 m/s)
Visibility: 6 or more miles (10+ km)
Ceiling: 2200 feet AGL
Clouds: broken clouds at 2200 feet AGL
Weather: no significant weather observed at this time

METAR text: LFSI 180500Z AUTO 18007KT 9999 FEW025 BKN200 19/17 Q1008
Conditions at: LFSI (ST. DIZIER/ROBIN, FR) observed 0500 UTC 18 August 2019
Temperature: 19.0°C (66°F)
Dewpoint: 17.0°C (63°F) [RH = 88%]
Pressure (altimeter): 29.76 inches Hg (1008.0 mb)
Winds: from the S (180 degrees) at 8 MPH (7 knots; 3.6 m/s)
Visibility: 6 or more miles (10+ km)
Ceiling: 20000 feet AGL
Clouds: few clouds at 2500 feet AGL
broken clouds at 20000 feet AGL
Weather: no significant weather observed at this time

METAR text: LFSI 180430Z AUTO 17006KT 9999 FEW028 18/17 Q1008
Conditions at: LFSI (ST. DIZIER/ROBIN, FR) observed 0430 UTC 18 August 2019
Temperature: 18.0°C (64°F)
Dewpoint: 17.0°C (63°F) [RH = 94%]
Pressure (altimeter): 29.76 inches Hg (1008.0 mb)
Winds: from the S (170 degrees) at 7 MPH (6 knots; 3.1 m/s)
Visibility: 6 or more miles (10+ km)
Ceiling: at least 12,000 feet AGL
Clouds: few clouds at 2800 feet AGL
Weather: no significant weather observed at this time

METAR text: LFSI 180400Z AUTO 16004KT 9999 SCT030 BKN078 18/17 Q1008
Conditions at: LFSI (ST. DIZIER/ROBIN, FR) observed 0400 UTC 18 August 2019
Temperature: 18.0°C (64°F)
Dewpoint: 17.0°C (63°F) [RH = 94%]
Pressure (altimeter): 29.76 inches Hg (1008.0 mb)
Winds: from the SSE (160 degrees) at 5 MPH (4 knots; 2.1 m/s)
Visibility: 6 or more miles (10+ km)
Ceiling: 7800 feet AGL
Clouds: scattered clouds at 3000 feet AGL
broken clouds at 7800 feet AGL
Weather: no significant weather observed at this time

METAR text: LFSI 180330Z AUTO 16005KT 9999 BKN031 BKN220 18/17 Q1009
Conditions at: LFSI (ST. DIZIER/ROBIN, FR) observed 0330 UTC 18 August 2019
Temperature: 18.0°C (64°F)
Dewpoint: 17.0°C (63°F) [RH = 94%]
Pressure (altimeter): 29.79 inches Hg (1009.0 mb)
Winds: from the SSE (160 degrees) at 6 MPH (5 knots; 2.6 m/s)
Visibility: 6 or more miles (10+ km)
Ceiling: 3100 feet AGL
Clouds: broken clouds at 3100 feet AGL
broken clouds at 22000 feet AGL
Weather: no significant weather observed at this time

METAR text: LFSI 180300Z AUTO 16003KT 9999 FEW015 SCT041 BKN220 18/17 Q1009
Conditions at: LFSI (ST. DIZIER/ROBIN, FR) observed 0300 UTC 18 August 2019
Temperature: 18.0°C (64°F)
Dewpoint: 17.0°C (63°F) [RH = 94%]
Pressure (altimeter): 29.79 inches Hg (1009.0 mb)
Winds: from the SSE (160 degrees) at 3 MPH (3 knots; 1.5 m/s)
Visibility: 6 or more miles (10+ km)
Ceiling: 22000 feet AGL
Clouds: few clouds at 1500 feet AGL
scattered clouds at 4100 feet AGL
broken clouds at 22000 feet AGL
Weather: no significant weather observed at this time

METAR text: LFSI 180230Z AUTO VRB02KT 9999 SCT020 BKN038 OVC220 18/17 Q1009
Conditions at: LFSI (ST. DIZIER/ROBIN, FR) observed 0230 UTC 18 August 2019
Temperature: 18.0°C (64°F)
Dewpoint: 17.0°C (63°F) [RH = 94%]
Pressure (altimeter): 29.79 inches Hg (1009.0 mb)
Winds: variable direction winds at 2 MPH (2 knots; 1.0 m/s)
Visibility: 6 or more miles (10+ km)
Ceiling: 3800 feet AGL
Clouds: scattered clouds at 2000 feet AGL
broken clouds at 3800 feet AGL
overcast cloud deck at 22000 feet AGL
Weather: no significant weather observed at this time

METAR text: LFSI 180200Z AUTO VRB03KT 9999 FEW021 BKN110 OVC220 19/18 Q1009
Conditions at: LFSI (ST. DIZIER/ROBIN, FR) observed 0200 UTC 18 August 2019
Temperature: 19.0°C (66°F)
Dewpoint: 18.0°C (64°F) [RH = 94%]
Pressure (altimeter): 29.79 inches Hg (1009.0 mb)
Winds: variable direction winds at 3 MPH (3 knots; 1.5 m/s)
Visibility: 6 or more miles (10+ km)
Ceiling: 11000 feet AGL
Clouds: few clouds at 2100 feet AGL
broken clouds at 11000 feet AGL
overcast cloud deck at 22000 feet AGL
Weather: no significant weather observed at this time

METAR text: LFSI 180130Z AUTO 21003KT 170V240 9999 FEW013 BKN025 OVC082 19/18 Q1009
Conditions at: LFSI (ST. DIZIER/ROBIN, FR) observed 0130 UTC 18 August 2019
Temperature: 19.0°C (66°F)
Dewpoint: 18.0°C (64°F) [RH = 94%]
Pressure (altimeter): 29.79 inches Hg (1009.0 mb)
Winds: from the SSW (210 degrees) at 3 MPH (3 knots; 1.5 m/s)
Visibility: 6 or more miles (10+ km)
Ceiling: 2500 feet AGL
Clouds: few clouds at 1300 feet AGL
broken clouds at 2500 feet AGL
overcast cloud deck at 8200 feet AGL
Weather: no significant weather observed at this time

METAR text: LFSI 180100Z AUTO 19004KT 9999 BKN011 OVC031 19/18 Q1010
Conditions at: LFSI (ST. DIZIER/ROBIN, FR) observed 0100 UTC 18 August 2019
Temperature: 19.0°C (66°F)
Dewpoint: 18.0°C (64°F) [RH = 94%]
Pressure (altimeter): 29.82 inches Hg (1010.0 mb)
Winds: from the S (190 degrees) at 5 MPH (4 knots; 2.1 m/s)
Visibility: 6 or more miles (10+ km)
Ceiling: 1100 feet AGL
Clouds: broken clouds at 1100 feet AGL
overcast cloud deck at 3100 feet AGL
Weather: no significant weather observed at this time

METAR text: LFSI 180030Z AUTO 22005KT 9999 SCT038 BKN080 OVC100 19/18 Q1010
Conditions at: LFSI (ST. DIZIER/ROBIN, FR) observed 0030 UTC 18 August 2019
Temperature: 19.0°C (66°F)
Dewpoint: 18.0°C (64°F) [RH = 94%]
Pressure (altimeter): 29.82 inches Hg (1010.0 mb)
Winds: from the SW (220 degrees) at 6 MPH (5 knots; 2.6 m/s)
Visibility: 6 or more miles (10+ km)
Ceiling: 8000 feet AGL
Clouds: scattered clouds at 3800 feet AGL
broken clouds at 8000 feet AGL
overcast cloud deck at 10000 feet AGL
Weather: no significant weather observed at this time

METAR text: LFSI 180000Z AUTO 21006KT 180V240 9999 FEW007 SCT029 OVC040 20/18 Q1010
Conditions at: LFSI (ST. DIZIER/ROBIN, FR) observed 0000 UTC 18 August 2019
Temperature: 20.0°C (68°F)
Dewpoint: 18.0°C (64°F) [RH = 88%]
Pressure (altimeter): 29.82 inches Hg (1010.0 mb)
Winds: from the SSW (210 degrees) at 7 MPH (6 knots; 3.1 m/s)
Visibility: 6 or more miles (10+ km)
Ceiling: 4000 feet AGL
Clouds: few clouds at 700 feet AGL
scattered clouds at 2900 feet AGL
overcast cloud deck at 4000 feet AGL
Weather: no significant weather observed at this time

METAR text: LFSI 172330Z AUTO 23009KT 9999 OVC008 20/18 Q1010
Conditions at: LFSI (ST. DIZIER/ROBIN, FR) observed 2330 UTC 17 August 2019
Temperature: 20.0°C (68°F)
Dewpoint: 18.0°C (64°F) [RH = 88%]
Pressure (altimeter): 29.82 inches Hg (1010.0 mb)
Winds: from the SW (230 degrees) at 10 MPH (9 knots; 4.6 m/s)
Visibility: 6 or more miles (10+ km)
Ceiling: 800 feet AGL
Clouds: overcast cloud deck at 800 feet AGL
Weather: no significant weather observed at this time

METAR text: LFSI 172300Z AUTO 24008KT 9999 BKN014 OVC020 20/18 Q1010
Conditions at: LFSI (ST. DIZIER/ROBIN, FR) observed 2300 UTC 17 August 2019
Temperature: 20.0°C (68°F)
Dewpoint: 18.0°C (64°F) [RH = 88%]
Pressure (altimeter): 29.82 inches Hg (1010.0 mb)
Winds: from the WSW (240 degrees) at 9 MPH (8 knots; 4.1 m/s)
Visibility: 6 or more miles (10+ km)
Ceiling: 1400 feet AGL
Clouds: broken clouds at 1400 feet AGL
overcast cloud deck at 2000 feet AGL
Weather: no significant weather observed at this time

METAR text: LFSI 172230Z AUTO 22009KT 9999 FEW020 BKN047 OVC130 20/18 Q1010
Conditions at: LFSI (ST. DIZIER/ROBIN, FR) observed 2230 UTC 17 August 2019
Temperature: 20.0°C (68°F)
Dewpoint: 18.0°C (64°F) [RH = 88%]
Pressure (altimeter): 29.82 inches Hg (1010.0 mb)
Winds: from the SW (220 degrees) at 10 MPH (9 knots; 4.6 m/s)
Visibility: 6 or more miles (10+ km)
Ceiling: 4700 feet AGL
Clouds: few clouds at 2000 feet AGL
broken clouds at 4700 feet AGL
overcast cloud deck at 13000 feet AGL
Weather: no significant weather observed at this time

METAR text: LFSI 172200Z AUTO 21009KT 180V240 9999 -RA FEW026 BKN048 BKN098 20/18 Q1010
Conditions at: LFSI (ST. DIZIER/ROBIN, FR) observed 2200 UTC 17 August 2019
Temperature: 20.0°C (68°F)
Dewpoint: 18.0°C (64°F) [RH = 88%]
Pressure (altimeter): 29.82 inches Hg (1010.0 mb)
Winds: from the SSW (210 degrees) at 10 MPH (9 knots; 4.6 m/s)
Visibility: 6 or more miles (10+ km)
Ceiling: 4800 feet AGL
Clouds: few clouds at 2600 feet AGL
broken clouds at 4800 feet AGL
broken clouds at 9800 feet AGL
Weather: -RA  (light rain)

METAR text: LFSI 172130Z AUTO 17006KT 9999 BKN030/// BKN041/// BKN050/// ///TCU 19/17 Q1010
Conditions at: LFSI (ST. DIZIER/ROBIN, FR) observed 2130 UTC 17 August 2019
Temperature: 19.0°C (66°F)
Dewpoint: 17.0°C (63°F) [RH = 88%]
Pressure (altimeter): 29.82 inches Hg (1010.0 mb)
Winds: from the S (170 degrees) at 7 MPH (6 knots; 3.1 m/s)
Visibility: 6 or more miles (10+ km)
Ceiling: 3000 feet AGL
Clouds: broken clouds at 3000 feet AGL
broken clouds at 4100 feet AGL
broken clouds at 5000 feet AGL
Weather: no significant weather observed at this time

METAR text: LFSI 172100Z AUTO 17004KT 140V200 9999 -RA SCT035/// BKN046/// BKN084/// ///TCU 19/17 Q1010
Conditions at: LFSI (ST. DIZIER/ROBIN, FR) observed 2100 UTC 17 August 2019
Temperature: 19.0°C (66°F)
Dewpoint: 17.0°C (63°F) [RH = 88%]
Pressure (altimeter): 29.82 inches Hg (1010.0 mb)
Winds: from the S (170 degrees) at 5 MPH (4 knots; 2.1 m/s)
Visibility: 6 or more miles (10+ km)
Ceiling: 4600 feet AGL
Clouds: scattered clouds at 3500 feet AGL
broken clouds at 4600 feet AGL
broken clouds at 8400 feet AGL
Weather: -RA  (light rain)

METAR text: LFSI 172030Z AUTO 18004KT 150V220 9999 -RA SCT035/// BKN043/// BKN050/// ///TCU 18/17 Q1010
Conditions at: LFSI (ST. DIZIER/ROBIN, FR) observed 2030 UTC 17 August 2019
Temperature: 18.0°C (64°F)
Dewpoint: 17.0°C (63°F) [RH = 94%]
Pressure (altimeter): 29.82 inches Hg (1010.0 mb)
Winds: from the S (180 degrees) at 5 MPH (4 knots; 2.1 m/s)
Visibility: 6 or more miles (10+ km)
Ceiling: 4300 feet AGL
Clouds: scattered clouds at 3500 feet AGL
broken clouds at 4300 feet AGL
broken clouds at 5000 feet AGL
Weather: -RA  (light rain)

METAR text: LFSI 172000Z AUTO 15003KT 9999 -RA BKN036/// OVC043/// ///TCU 18/17 Q1010
Conditions at: LFSI (ST. DIZIER/ROBIN, FR) observed 2000 UTC 17 August 2019
Temperature: 18.0°C (64°F)
Dewpoint: 17.0°C (63°F) [RH = 94%]
Pressure (altimeter): 29.82 inches Hg (1010.0 mb)
Winds: from the SSE (150 degrees) at 3 MPH (3 knots; 1.5 m/s)
Visibility: 6 or more miles (10+ km)
Ceiling: 3600 feet AGL
Clouds: broken clouds at 3600 feet AGL
overcast cloud deck at 4300 feet AGL
Weather: -RA  (light rain)

METAR text: LFSI 171930Z AUTO 13002KT 9999 -RA BKN038/// BKN044/// OVC056/// ///TCU 18/17 Q1011
Conditions at: LFSI (ST. DIZIER/ROBIN, FR) observed 1930 UTC 17 August 2019
Temperature: 18.0°C (64°F)
Dewpoint: 17.0°C (63°F) [RH = 94%]
Pressure (altimeter): 29.85 inches Hg (1011.0 mb)
Winds: from the SE (130 degrees) at 2 MPH (2 knots; 1.0 m/s)
Visibility: 6 or more miles (10+ km)
Ceiling: 3800 feet AGL
Clouds: broken clouds at 3800 feet AGL
broken clouds at 4400 feet AGL
overcast cloud deck at 5600 feet AGL
Weather: -RA  (light rain)

METAR text: LFSI 171900Z AUTO 15003KT 5000 RA BR FEW028/// SCT040/// BKN046/// ///TCU 18/17 Q1010
Conditions at: LFSI (ST. DIZIER/ROBIN, FR) observed 1900 UTC 17 August 2019
Temperature: 18.0°C (64°F)
Dewpoint: 17.0°C (63°F) [RH = 94%]
Pressure (altimeter): 29.82 inches Hg (1010.0 mb)
Winds: from the SSE (150 degrees) at 3 MPH (3 knots; 1.5 m/s)
Visibility: 3 miles ( 5 km)
Ceiling: 4600 feet AGL
Clouds: few clouds at 2800 feet AGL
scattered clouds at 4000 feet AGL
broken clouds at 4600 feet AGL
Weather: RA BR  (moderate rain, mist)

METAR text: LFSI 171830Z AUTO 15003KT 3100 RA BR FEW016/// BKN033/// OVC042/// ///TCU 18/17 Q1011
Conditions at: LFSI (ST. DIZIER/ROBIN, FR) observed 1830 UTC 17 August 2019
Temperature: 18.0°C (64°F)
Dewpoint: 17.0°C (63°F) [RH = 94%]
Pressure (altimeter): 29.85 inches Hg (1011.0 mb)
Winds: from the SSE (150 degrees) at 3 MPH (3 knots; 1.5 m/s)
Visibility: 1.93 miles (3.11 km)
Ceiling: 3300 feet AGL
Clouds: few clouds at 1600 feet AGL
broken clouds at 3300 feet AGL
overcast cloud deck at 4200 feet AGL
Weather: RA BR  (moderate rain, mist)

METAR text: LFSI 171800Z AUTO 19004KT 160V220 2600 -RA BR BKN006 BKN026 BKN032 18/17 Q1011
Conditions at: LFSI (ST. DIZIER/ROBIN, FR) observed 1800 UTC 17 August 2019
Temperature: 18.0°C (64°F)
Dewpoint: 17.0°C (63°F) [RH = 94%]
Pressure (altimeter): 29.85 inches Hg (1011.0 mb)
Winds: from the S (190 degrees) at 5 MPH (4 knots; 2.1 m/s)
Visibility: 1.62 miles (2.61 km)
Ceiling: 600 feet AGL
Clouds: broken clouds at 600 feet AGL
broken clouds at 2600 feet AGL
broken clouds at 3200 feet AGL
Weather: -RA BR  (light rain, mist)

METAR text: LFSI 171730Z AUTO 19006KT 2800 RA BR BKN007 BKN011 BKN022 18/17 Q1011
Conditions at: LFSI (ST. DIZIER/ROBIN, FR) observed 1730 UTC 17 August 2019
Temperature: 18.0°C (64°F)
Dewpoint: 17.0°C (63°F) [RH = 94%]
Pressure (altimeter): 29.85 inches Hg (1011.0 mb)
Winds: from the S (190 degrees) at 7 MPH (6 knots; 3.1 m/s)
Visibility: 1.74 miles (2.80 km)
Ceiling: 700 feet AGL
Clouds: broken clouds at 700 feet AGL
broken clouds at 1100 feet AGL
broken clouds at 2200 feet AGL
Weather: RA BR  (moderate rain, mist)

METAR text: LFSI 171700Z AUTO 19007KT 3200 -RA BR BKN007 BKN011 OVC024 18/17 Q1011
Conditions at: LFSI (ST. DIZIER/ROBIN, FR) observed 1700 UTC 17 August 2019
Temperature: 18.0°C (64°F)
Dewpoint: 17.0°C (63°F) [RH = 94%]
Pressure (altimeter): 29.85 inches Hg (1011.0 mb)
Winds: from the S (190 degrees) at 8 MPH (7 knots; 3.6 m/s)
Visibility: 1.99 miles (3.20 km)
Ceiling: 700 feet AGL
Clouds: broken clouds at 700 feet AGL
broken clouds at 1100 feet AGL
overcast cloud deck at 2400 feet AGL
Weather: -RA BR  (light rain, mist)

METAR text: LFSI 171630Z AUTO 19007KT 4500 -RA BR BKN007 BKN013 OVC022 18/17 Q1012
Conditions at: LFSI (ST. DIZIER/ROBIN, FR) observed 1630 UTC 17 August 2019
Temperature: 18.0°C (64°F)
Dewpoint: 17.0°C (63°F) [RH = 94%]
Pressure (altimeter): 29.88 inches Hg (1012.0 mb)
Winds: from the S (190 degrees) at 8 MPH (7 knots; 3.6 m/s)
Visibility: 2.80 miles (4.51 km)
Ceiling: 700 feet AGL
Clouds: broken clouds at 700 feet AGL
broken clouds at 1300 feet AGL
overcast cloud deck at 2200 feet AGL
Weather: -RA BR  (light rain, mist)

METAR text: LFSI 171600Z AUTO 18008KT 5000 2300 RA BR BKN008/// BKN013/// OVC024/// ///TCU 18/17 Q1012
Conditions at: LFSI (ST. DIZIER/ROBIN, FR) observed 1600 UTC 17 August 2019
Temperature: 18.0°C (64°F)
Dewpoint: 17.0°C (63°F) [RH = 94%]
Pressure (altimeter): 29.88 inches Hg (1012.0 mb)
Winds: from the S (180 degrees) at 9 MPH (8 knots; 4.1 m/s)
Visibility: 3 miles ( 5 km)
Ceiling: 800 feet AGL
Clouds: broken clouds at 800 feet AGL
broken clouds at 1300 feet AGL
overcast cloud deck at 2400 feet AGL
Weather: RA BR  (moderate rain, mist)

METAR text: LFSI 171530Z AUTO 17006KT 140V200 9999 -RA BKN025/// OVC032/// ///TCU 18/17 Q1012
Conditions at: LFSI (ST. DIZIER/ROBIN, FR) observed 1530 UTC 17 August 2019
Temperature: 18.0°C (64°F)
Dewpoint: 17.0°C (63°F) [RH = 94%]
Pressure (altimeter): 29.88 inches Hg (1012.0 mb)
Winds: from the S (170 degrees) at 7 MPH (6 knots; 3.1 m/s)
Visibility: 6 or more miles (10+ km)
Ceiling: 2500 feet AGL
Clouds: broken clouds at 2500 feet AGL
overcast cloud deck at 3200 feet AGL
Weather: -RA  (light rain)

METAR text: LFSI 171500Z AUTO 18006KT 9999 -RA FEW008/// OVC031/// ///TCU 18/17 Q1012
Conditions at: LFSI (ST. DIZIER/ROBIN, FR) observed 1500 UTC 17 August 2019
Temperature: 18.0°C (64°F)
Dewpoint: 17.0°C (63°F) [RH = 94%]
Pressure (altimeter): 29.88 inches Hg (1012.0 mb)
Winds: from the S (180 degrees) at 7 MPH (6 knots; 3.1 m/s)
Visibility: 6 or more miles (10+ km)
Ceiling: 3100 feet AGL
Clouds: few clouds at 800 feet AGL
overcast cloud deck at 3100 feet AGL
Weather: -RA  (light rain)

METAR text: LFSI 171430Z AUTO 19007KT 160V220 4700 RA BR FEW012/// BKN034/// BKN042/// ///TCU 18/16 Q1012
Conditions at: LFSI (ST. DIZIER/ROBIN, FR) observed 1430 UTC 17 August 2019
Temperature: 18.0°C (64°F)
Dewpoint: 16.0°C (61°F) [RH = 88%]
Pressure (altimeter): 29.88 inches Hg (1012.0 mb)
Winds: from the S (190 degrees) at 8 MPH (7 knots; 3.6 m/s)
Visibility: 2.92 miles (4.70 km)
Ceiling: 3400 feet AGL
Clouds: few clouds at 1200 feet AGL
broken clouds at 3400 feet AGL
broken clouds at 4200 feet AGL
Weather: RA BR  (moderate rain, mist)

METAR text: LFSI 171400Z AUTO 18005KT 6000 -RA FEW007/// BKN029/// BKN035/// ///TCU 18/16 Q1012
Conditions at: LFSI (ST. DIZIER/ROBIN, FR) observed 1400 UTC 17 August 2019
Temperature: 18.0°C (64°F)
Dewpoint: 16.0°C (61°F) [RH = 88%]
Pressure (altimeter): 29.88 inches Hg (1012.0 mb)
Winds: from the S (180 degrees) at 6 MPH (5 knots; 2.6 m/s)
Visibility: 4 miles ( 6 km)
Ceiling: 2900 feet AGL
Clouds: few clouds at 700 feet AGL
broken clouds at 2900 feet AGL
broken clouds at 3500 feet AGL
Weather: -RA  (light rain)

METAR text: LFSI 171330Z AUTO 19006KT 160V230 5000 -RA BR SCT008/// BKN014/// BKN035/// ///TCU 17/16 Q1012
Conditions at: LFSI (ST. DIZIER/ROBIN, FR) observed 1330 UTC 17 August 2019
Temperature: 17.0°C (63°F)
Dewpoint: 16.0°C (61°F) [RH = 94%]
Pressure (altimeter): 29.88 inches Hg (1012.0 mb)
Winds: from the S (190 degrees) at 7 MPH (6 knots; 3.1 m/s)
Visibility: 3 miles ( 5 km)
Ceiling: 1400 feet AGL
Clouds: scattered clouds at 800 feet AGL
broken clouds at 1400 feet AGL
broken clouds at 3500 feet AGL
Weather: -RA BR  (light rain, mist)

METAR text: LFSI 171300Z AUTO 19009KT 9999 -RA FEW010/// BKN015/// OVC025/// ///TCU 18/16 Q1012
Conditions at: LFSI (ST. DIZIER/ROBIN, FR) observed 1300 UTC 17 August 2019
Temperature: 18.0°C (64°F)
Dewpoint: 16.0°C (61°F) [RH = 88%]
Pressure (altimeter): 29.88 inches Hg (1012.0 mb)
Winds: from the S (190 degrees) at 10 MPH (9 knots; 4.6 m/s)
Visibility: 6 or more miles (10+ km)
Ceiling: 1500 feet AGL
Clouds: few clouds at 1000 feet AGL
broken clouds at 1500 feet AGL
overcast cloud deck at 2500 feet AGL
Weather: -RA  (light rain)

Forecast for: LFSI (ST. DIZIER/ROBIN, FR)
Text: TAF LFSI 182000Z 1821/1921 20003KT CAVOK
Forecast period: 2100 UTC 18 August 2019 to 2100 UTC 19 August 2019
Forecast type: FROM: standard forecast or significant change
Winds: from the SSW (200 degrees) at 3 MPH (3 knots; 1.5 m/s)
Visibility: 6 or more miles 10+ km)
Ceiling: unknown
Clouds: missing
Weather: NSW  (no significant weather)